createdAt,value
2019-03-11T00:02:19.646Z,2.30
2019-03-11T00:04:58.448Z,1.90
2019-03-11T00:07:33.339Z,1.70
2019-03-11T00:10:17.678Z,1.30
2019-03-11T00:12:47.570Z,1.97
2019-03-11T00:15:17.953Z,1.87
2019-03-11T00:17:49.404Z,1.70
2019-03-11T00:20:22.434Z,1.47
2019-03-11T00:22:57.564Z,1.97
2019-03-11T00:25:31.476Z,1.87
2019-03-11T00:28:04.344Z,1.67
2019-03-11T00:30:34.069Z,1.80
2019-03-11T00:33:09.855Z,2.10
2019-03-11T00:35:43.667Z,2.00
2019-03-11T00:38:18.006Z,1.63
2019-03-11T00:40:48.271Z,2.17
2019-03-11T00:43:20.742Z,1.90
2019-03-11T00:45:49.897Z,2.20
2019-03-11T00:48:19.083Z,2.60
2019-03-11T00:50:48.234Z,2.37
2019-03-11T00:53:17.488Z,1.60
2019-03-11T00:55:46.696Z,1.93
2019-03-11T00:58:15.892Z,1.80
2019-03-11T01:00:45.312Z,1.80
2019-03-11T01:03:14.488Z,2.60
2019-03-11T01:05:43.617Z,1.67
2019-03-11T01:08:12.864Z,1.87
2019-03-11T01:10:42.072Z,1.50
2019-03-11T01:13:11.267Z,1.87
2019-03-11T01:15:40.497Z,1.57
2019-03-11T01:18:09.735Z,1.80
2019-03-11T01:20:38.945Z,2.60
2019-03-11T01:23:08.115Z,1.60
2019-03-11T01:25:37.341Z,1.50
2019-03-11T01:28:06.509Z,1.50
2019-03-11T01:30:35.684Z,1.60
2019-03-11T01:33:04.805Z,1.70
2019-03-11T01:35:33.960Z,2.00
2019-03-11T01:38:03.130Z,1.47
2019-03-11T01:40:32.311Z,2.57
2019-03-11T01:43:01.428Z,1.77
2019-03-11T01:45:30.583Z,1.40
2019-03-11T01:47:59.717Z,2.23
2019-03-11T01:50:28.885Z,1.90
2019-03-11T01:52:58.121Z,2.57
2019-03-11T01:55:27.445Z,1.40
2019-03-11T01:57:56.590Z,1.80
2019-03-11T02:00:25.988Z,2.60
2019-03-11T02:02:55.282Z,2.30
2019-03-11T02:05:24.499Z,1.87
2019-03-11T02:07:53.679Z,1.70
2019-03-11T02:10:22.902Z,2.30
2019-03-11T02:12:52.072Z,1.90
2019-03-11T02:15:21.325Z,2.17
2019-03-11T02:17:50.466Z,2.40
2019-03-11T02:20:19.679Z,2.13
2019-03-11T02:22:48.849Z,1.30
2019-03-11T02:25:18.116Z,3.23
2019-03-11T02:27:48.435Z,2.50
2019-03-11T02:30:17.589Z,2.27
2019-03-11T02:32:46.824Z,1.47
2019-03-11T02:35:26.869Z,2.13
2019-03-11T02:37:56.092Z,1.63
2019-03-11T02:40:25.465Z,2.33
2019-03-11T02:42:54.793Z,2.20
2019-03-11T02:45:23.990Z,1.80
2019-03-11T02:47:53.137Z,2.03
2019-03-11T02:50:22.261Z,1.90
2019-03-11T02:52:51.513Z,2.40
2019-03-11T02:55:20.652Z,1.90
2019-03-11T02:57:49.773Z,2.43
2019-03-11T03:00:19.934Z,1.80
2019-03-11T03:03:14.482Z,2.87
2019-03-11T03:05:50.428Z,2.90
2019-03-11T03:08:19.620Z,2.47
2019-03-11T03:10:48.777Z,1.70
2019-03-11T03:13:17.994Z,1.67
2019-03-11T03:15:47.273Z,1.77
2019-03-11T03:18:16.506Z,2.97
2019-03-11T03:20:45.625Z,1.67
2019-03-11T03:23:14.868Z,2.50
2019-03-11T03:25:44.037Z,1.90
2019-03-11T03:28:13.310Z,2.40
2019-03-11T03:30:42.576Z,2.13
2019-03-11T03:33:11.710Z,1.50
2019-03-11T03:35:40.906Z,1.83
2019-03-11T03:38:10.198Z,1.67
2019-03-11T03:40:39.471Z,3.63
2019-03-11T03:43:08.771Z,1.83
2019-03-11T03:45:41.167Z,2.30
2019-03-11T03:48:10.613Z,2.53
2019-03-11T03:50:40.337Z,2.10
2019-03-11T03:53:09.722Z,1.77
2019-03-11T03:55:38.955Z,1.70
2019-03-11T03:58:08.348Z,1.53
2019-03-11T04:00:37.510Z,1.60
2019-03-11T04:03:06.649Z,2.73
2019-03-11T04:05:35.779Z,1.87
2019-03-11T04:08:06.485Z,2.00
2019-03-11T04:10:35.844Z,2.20
2019-03-11T04:13:05.186Z,3.20
2019-03-11T04:15:34.395Z,3.90
2019-03-11T04:18:03.527Z,1.73
2019-03-11T04:20:32.668Z,2.30
2019-03-11T04:23:02.187Z,2.87
2019-03-11T04:25:31.345Z,2.40
2019-03-11T04:28:00.527Z,1.60
2019-03-11T04:30:30.120Z,1.97
2019-03-11T04:32:59.370Z,2.20
2019-03-11T04:35:28.545Z,3.00
2019-03-11T04:37:57.748Z,1.83
2019-03-11T04:40:26.988Z,1.90
2019-03-11T04:42:56.196Z,3.90
2019-03-11T04:45:25.340Z,2.20
2019-03-11T04:47:54.479Z,1.80
2019-03-11T04:50:23.717Z,1.50
2019-03-11T04:52:52.840Z,2.57
2019-03-11T04:55:22.060Z,1.80
2019-03-11T04:57:54.573Z,2.10
2019-03-11T05:00:26.008Z,1.60
2019-03-11T05:02:55.175Z,1.30
2019-03-11T05:05:24.357Z,1.10
2019-03-11T05:07:53.629Z,1.37
2019-03-11T05:10:22.864Z,1.83
2019-03-11T05:12:52.100Z,2.33
2019-03-11T05:15:21.224Z,1.20
2019-03-11T05:17:50.872Z,1.60
2019-03-11T05:20:20.308Z,1.77
2019-03-11T05:22:49.482Z,1.40
2019-03-11T05:25:18.642Z,1.30
2019-03-11T05:27:47.772Z,1.43
2019-03-11T05:30:17.041Z,1.37
2019-03-11T05:32:47.678Z,1.40
2019-03-11T05:35:16.883Z,1.40
2019-03-11T05:37:46.105Z,1.57
2019-03-11T05:40:15.678Z,1.30
2019-03-11T05:42:44.849Z,1.37
2019-03-11T05:45:14.185Z,1.17
2019-03-11T05:47:43.333Z,1.00
2019-03-11T05:50:13.389Z,1.00
2019-03-11T05:52:44.019Z,2.43
2019-03-11T05:55:13.277Z,2.37
2019-03-11T05:57:42.762Z,1.07
2019-03-11T06:00:14.996Z,1.43
2019-03-11T06:02:44.156Z,0.90
2019-03-11T06:05:13.761Z,1.03
2019-03-11T06:07:42.909Z,1.20
2019-03-11T06:10:12.316Z,1.70
2019-03-11T06:12:41.444Z,1.27
2019-03-11T06:15:10.916Z,1.00
2019-03-11T06:17:40.283Z,1.20
2019-03-11T06:20:28.736Z,0.90
2019-03-11T06:22:58.168Z,1.93
2019-03-11T06:25:27.350Z,1.30
2019-03-11T06:27:56.669Z,1.00
2019-03-11T06:30:26.099Z,0.90
2019-03-11T06:32:55.316Z,1.00
2019-03-11T06:35:24.545Z,1.20
2019-03-11T06:37:53.702Z,1.00
2019-03-11T06:40:22.843Z,0.80
2019-03-11T06:42:52.053Z,1.00
2019-03-11T06:45:21.282Z,0.80
2019-03-11T06:47:51.524Z,1.00
2019-03-11T06:50:20.852Z,0.90
2019-03-11T06:52:49.998Z,1.03
2019-03-11T06:55:19.150Z,1.00
2019-03-11T06:57:48.336Z,1.10
2019-03-11T07:00:17.646Z,0.90
2019-03-11T07:02:46.846Z,1.10
2019-03-11T07:05:20.269Z,0.80
2019-03-11T07:07:47.067Z,0.97
2019-03-11T07:10:16.796Z,1.00
2019-03-11T07:12:46.039Z,0.90
2019-03-11T07:15:16.147Z,1.07
2019-03-11T07:17:45.415Z,0.60
2019-03-11T07:20:14.628Z,0.83
2019-03-11T07:22:43.827Z,0.90
2019-03-11T07:25:13.336Z,0.60
2019-03-11T07:27:42.585Z,0.90
2019-03-11T07:30:13.473Z,1.07
2019-03-11T07:32:44.512Z,1.00
2019-03-11T07:35:13.724Z,1.00
2019-03-11T07:37:42.974Z,0.90
2019-03-11T07:40:12.232Z,1.10
2019-03-11T07:42:41.461Z,1.53
2019-03-11T07:45:10.889Z,0.77
2019-03-11T07:47:40.060Z,0.80
2019-03-11T07:50:09.712Z,0.70
2019-03-11T07:52:38.966Z,1.00
2019-03-11T07:55:08.154Z,1.10
2019-03-11T07:57:37.392Z,0.80
2019-03-11T08:00:09.230Z,1.33
2019-03-11T08:02:40.361Z,0.80
2019-03-11T08:05:09.824Z,0.60
2019-03-11T08:07:39.037Z,0.80
2019-03-11T08:10:09.556Z,0.60
2019-03-11T08:12:38.761Z,0.80
2019-03-11T08:15:10.210Z,0.80
2019-03-11T08:17:39.437Z,0.77
2019-03-11T08:20:10.148Z,0.60
2019-03-11T08:22:39.429Z,0.70
2019-03-11T08:25:08.829Z,0.80
2019-03-11T08:27:37.991Z,1.33
2019-03-11T08:30:08.293Z,0.70
2019-03-11T08:32:37.552Z,0.70
2019-03-11T08:35:07.493Z,0.90
2019-03-11T08:37:36.680Z,0.80
2019-03-11T08:40:06.829Z,1.00
2019-03-11T08:42:35.981Z,0.80
2019-03-11T08:45:06.075Z,1.03
2019-03-11T08:47:35.293Z,0.93
2019-03-11T08:50:05.176Z,1.10
2019-03-11T08:52:34.429Z,0.90
2019-03-11T08:55:03.625Z,0.80
2019-03-11T08:57:32.879Z,0.90
2019-03-11T09:00:02.062Z,0.90
2019-03-11T09:02:31.311Z,0.80
2019-03-11T09:05:00.657Z,0.73
2019-03-11T09:07:31.087Z,0.83
2019-03-11T09:10:00.449Z,1.03
2019-03-11T09:12:29.691Z,1.00
2019-03-11T09:14:58.957Z,0.90
2019-03-11T09:17:28.072Z,1.17
2019-03-11T09:19:57.520Z,0.90
2019-03-11T09:22:26.751Z,0.90
2019-03-11T09:24:56.023Z,1.00
2019-03-11T09:27:25.264Z,0.80
2019-03-11T09:29:54.624Z,0.70
2019-03-11T09:32:23.870Z,0.70
2019-03-11T09:34:53.127Z,1.20
2019-03-11T09:37:22.347Z,1.00
2019-03-11T09:39:51.645Z,0.90
2019-03-11T09:42:20.850Z,0.87
2019-03-11T09:44:50.273Z,1.10
2019-03-11T09:47:19.543Z,1.03
2019-03-11T09:49:49.078Z,1.30
2019-03-11T09:52:20.130Z,1.33
2019-03-11T09:54:49.276Z,1.10
2019-03-11T09:57:18.540Z,0.90
2019-03-11T09:59:47.906Z,1.17
2019-03-11T10:02:17.202Z,0.80
2019-03-11T10:04:47.538Z,0.80
2019-03-11T10:07:16.784Z,1.13
2019-03-11T10:09:46.050Z,0.90
2019-03-11T10:12:15.378Z,0.90
2019-03-11T10:14:44.619Z,0.90
2019-03-11T10:17:13.918Z,1.23
2019-03-11T10:19:43.118Z,1.07
2019-03-11T10:22:12.498Z,1.30
2019-03-11T10:24:41.741Z,1.07
2019-03-11T10:27:11.014Z,1.13
2019-03-11T10:29:40.251Z,1.40
2019-03-11T10:32:09.433Z,0.77
2019-03-11T10:34:38.759Z,0.83
2019-03-11T10:37:07.966Z,1.10
2019-03-11T10:39:37.146Z,1.00
2019-03-11T10:42:06.518Z,1.10
2019-03-11T10:44:35.715Z,1.30
2019-03-11T10:47:04.949Z,1.23
2019-03-11T10:49:34.213Z,1.30
2019-03-11T10:52:03.487Z,0.97
2019-03-11T10:54:32.781Z,1.27
2019-03-11T10:57:02.140Z,1.57
2019-03-11T10:59:31.314Z,1.17
2019-03-11T11:02:00.588Z,1.10
2019-03-11T11:04:29.874Z,1.00
2019-03-11T11:06:59.117Z,1.20
2019-03-11T11:09:28.498Z,1.17
2019-03-11T11:11:57.779Z,1.40
2019-03-11T11:14:27.053Z,1.20
2019-03-11T11:16:56.216Z,1.00
2019-03-11T11:19:25.528Z,0.87
2019-03-11T11:21:54.749Z,1.43
2019-03-11T11:24:23.996Z,1.20
2019-03-11T11:26:53.218Z,1.27
2019-03-11T11:29:22.423Z,1.00
2019-03-11T11:31:51.681Z,1.00
2019-03-11T11:34:20.963Z,1.23
2019-03-11T11:36:50.339Z,0.83
2019-03-11T11:39:19.545Z,1.00
2019-03-11T11:41:48.886Z,1.00
2019-03-11T11:44:18.212Z,1.17
2019-03-11T11:46:47.529Z,1.47
2019-03-11T11:49:16.756Z,1.10
2019-03-11T11:51:46.106Z,1.17
2019-03-11T11:54:15.322Z,1.10
2019-03-11T11:56:44.497Z,0.87
2019-03-11T11:59:13.716Z,1.07
2019-03-11T12:01:42.998Z,1.20
2019-03-11T12:04:13.590Z,2.17
2019-03-11T12:06:43.167Z,0.77
2019-03-11T12:09:12.497Z,0.93
2019-03-11T12:11:41.659Z,1.10
2019-03-11T12:14:10.850Z,1.20
2019-03-11T12:16:40.235Z,1.17
2019-03-11T12:19:09.561Z,1.40
2019-03-11T12:21:38.889Z,0.93
2019-03-11T12:24:08.132Z,1.00
2019-03-11T12:26:37.463Z,0.93
2019-03-11T12:29:06.732Z,0.80
2019-03-11T12:31:36.026Z,0.90
2019-03-11T12:34:05.313Z,0.90
2019-03-11T12:36:34.569Z,0.90
2019-03-11T12:39:05.142Z,1.03
2019-03-11T12:41:34.326Z,1.00
2019-03-11T12:44:03.601Z,1.10
2019-03-11T12:46:32.878Z,1.20
2019-03-11T12:49:02.261Z,1.20
2019-03-11T12:51:31.429Z,1.43
2019-03-11T12:54:00.708Z,1.00
2019-03-11T12:56:29.889Z,1.43
2019-03-11T12:58:59.182Z,0.90
2019-03-11T13:01:28.464Z,1.57
2019-03-11T13:03:57.849Z,1.33
2019-03-11T13:06:27.125Z,0.90
2019-03-11T13:08:56.423Z,1.03
2019-03-11T13:11:25.657Z,0.87
2019-03-11T13:13:54.907Z,0.90
2019-03-11T13:16:24.213Z,1.40
2019-03-11T13:18:56.026Z,1.03
2019-03-11T13:21:30.759Z,1.03
2019-03-11T13:24:00.038Z,0.97
2019-03-11T13:26:30.351Z,0.90
2019-03-11T13:28:59.522Z,1.10
2019-03-11T13:31:28.824Z,1.27
2019-03-11T13:34:00.641Z,1.00
2019-03-11T13:36:30.017Z,1.13
2019-03-11T13:38:59.185Z,0.90
2019-03-11T13:41:28.451Z,0.80
2019-03-11T13:43:57.691Z,1.33
2019-03-11T13:46:28.733Z,1.40
2019-03-11T13:48:58.033Z,0.90
2019-03-11T13:51:27.340Z,1.10
2019-03-11T13:53:56.517Z,1.13
2019-03-11T13:56:25.717Z,1.10
2019-03-11T13:58:54.907Z,1.10
2019-03-11T14:01:24.161Z,1.20
2019-03-11T14:03:54.540Z,0.93
2019-03-11T14:06:23.800Z,0.90
2019-03-11T14:08:53.054Z,1.00
2019-03-11T14:11:22.221Z,1.10
2019-03-11T14:13:51.434Z,1.33
2019-03-11T14:16:20.633Z,1.20
2019-03-11T14:18:49.838Z,1.53
2019-03-11T14:21:25.606Z,1.57
2019-03-11T14:23:50.051Z,2.03
2019-03-11T14:26:20.407Z,1.10
2019-03-11T14:28:49.638Z,1.47
2019-03-11T14:31:18.870Z,1.30
2019-03-11T14:33:48.056Z,1.27
2019-03-11T14:36:17.384Z,1.30
2019-03-11T14:38:46.625Z,1.13
2019-03-11T14:41:15.859Z,1.10
2019-03-11T14:43:45.017Z,1.17
2019-03-11T14:46:14.181Z,1.30
2019-03-11T14:48:44.472Z,1.07
2019-03-11T14:51:13.837Z,1.37
2019-03-11T14:53:44.905Z,1.40
2019-03-11T14:56:14.176Z,1.53
2019-03-11T14:58:43.341Z,1.50
2019-03-11T15:01:14.443Z,1.20
2019-03-11T15:03:44.765Z,1.40
2019-03-11T15:06:14.215Z,1.50
2019-03-11T15:08:43.456Z,1.00
2019-03-11T15:11:12.698Z,1.30
2019-03-11T15:13:41.933Z,1.43
2019-03-11T15:16:11.185Z,1.10
2019-03-11T15:18:40.492Z,1.20
2019-03-11T15:21:09.769Z,1.10
2019-03-11T15:23:39.101Z,0.90
2019-03-11T15:26:08.387Z,1.40
2019-03-11T15:28:37.761Z,1.23
2019-03-11T15:31:10.688Z,1.30
2019-03-11T15:33:38.027Z,1.00
2019-03-11T15:36:07.256Z,1.07
2019-03-11T15:38:36.706Z,1.10
2019-03-11T15:41:05.924Z,1.13
2019-03-11T15:43:35.114Z,1.30
2019-03-11T15:46:04.271Z,1.23
2019-03-11T15:48:33.582Z,1.10
2019-03-11T15:51:02.834Z,1.13
2019-03-11T15:53:32.179Z,1.17
2019-03-11T15:56:01.416Z,1.27
2019-03-11T15:58:30.694Z,1.20
2019-03-11T16:00:59.937Z,1.00
2019-03-11T16:03:36.250Z,1.20
2019-03-11T16:06:00.124Z,0.90
2019-03-11T16:08:29.395Z,1.07
2019-03-11T16:10:58.931Z,1.90
2019-03-11T16:13:28.233Z,1.07
2019-03-11T16:15:57.453Z,1.50
2019-03-11T16:18:26.593Z,1.23
2019-03-11T16:20:55.820Z,1.20
2019-03-11T16:23:25.073Z,1.30
2019-03-11T16:25:54.273Z,1.30
2019-03-11T16:28:23.488Z,1.40
2019-03-11T16:30:52.729Z,1.17
2019-03-11T16:33:21.911Z,0.93
2019-03-11T16:35:51.200Z,1.70
2019-03-11T16:38:20.342Z,1.03
2019-03-11T16:40:49.604Z,1.40
2019-03-11T16:43:18.822Z,1.13
2019-03-11T16:45:48.114Z,1.37
2019-03-11T16:48:17.340Z,1.63
2019-03-11T16:50:46.600Z,1.33
2019-03-11T16:53:15.847Z,1.20
2019-03-11T16:55:45.891Z,1.17
2019-03-11T16:58:15.221Z,2.10
2019-03-11T17:00:44.896Z,1.10
2019-03-11T17:03:14.290Z,1.20
2019-03-11T17:05:43.553Z,1.07
2019-03-11T17:08:12.839Z,1.80
2019-03-11T17:10:42.261Z,1.17
2019-03-11T17:13:11.534Z,1.33
2019-03-11T17:15:40.684Z,1.40
2019-03-11T17:18:10.066Z,1.40
2019-03-11T17:20:39.371Z,1.37
2019-03-11T17:23:08.677Z,1.23
2019-03-11T17:25:37.848Z,1.43
2019-03-11T17:28:07.295Z,1.63
2019-03-11T17:30:36.665Z,1.37
2019-03-11T17:33:05.957Z,1.57
2019-03-11T17:35:37.562Z,1.00
2019-03-11T17:38:06.264Z,1.90
2019-03-11T17:40:35.491Z,2.03
2019-03-11T17:43:05.030Z,2.13
2019-03-11T17:45:34.389Z,1.63
2019-03-11T17:48:03.680Z,1.20
2019-03-11T17:50:32.948Z,1.70
2019-03-11T17:53:02.199Z,1.60
2019-03-11T17:55:31.409Z,2.77
2019-03-11T17:58:00.712Z,2.90
2019-03-11T18:00:31.781Z,2.83
2019-03-11T18:03:00.971Z,3.93
2019-03-11T18:05:30.257Z,3.63
2019-03-11T18:07:59.495Z,2.50
2019-03-11T18:10:28.776Z,2.10
2019-03-11T18:12:58.066Z,1.70
2019-03-11T18:15:27.291Z,1.50
2019-03-11T18:17:56.461Z,1.90
2019-03-11T18:20:25.676Z,1.80
2019-03-11T18:22:55.032Z,1.90
2019-03-11T18:25:24.300Z,1.87
2019-03-11T18:27:53.597Z,1.60
2019-03-11T18:30:22.969Z,1.20
2019-03-11T18:32:52.379Z,1.57
2019-03-11T18:35:21.848Z,1.73
2019-03-11T18:38:02.858Z,1.60
2019-03-11T18:40:22.397Z,1.47
2019-03-11T18:42:51.660Z,1.20
2019-03-11T18:45:20.977Z,1.20
2019-03-11T18:47:51.584Z,1.40
2019-03-11T18:50:20.988Z,1.30
2019-03-11T18:52:50.414Z,1.40
2019-03-11T18:55:19.736Z,2.00
2019-03-11T18:57:50.417Z,1.33
2019-03-11T19:00:20.034Z,1.50
2019-03-11T19:02:49.307Z,1.30
2019-03-11T19:05:18.819Z,1.30
2019-03-11T19:07:48.238Z,1.40
2019-03-11T19:10:17.715Z,1.83
2019-03-11T19:12:46.945Z,1.47
2019-03-11T19:15:16.918Z,1.27
2019-03-11T19:17:46.559Z,1.70
2019-03-11T19:20:17.413Z,1.20
2019-03-11T19:22:46.988Z,1.70
2019-03-11T19:25:17.116Z,3.33
2019-03-11T19:27:46.577Z,1.70
2019-03-11T19:30:17.851Z,1.47
2019-03-11T19:32:47.228Z,1.60
2019-03-11T19:35:17.427Z,1.60
2019-03-11T19:37:46.956Z,2.10
2019-03-11T19:40:17.767Z,1.27
2019-03-11T19:42:47.220Z,1.50
2019-03-11T19:45:17.002Z,1.40
2019-03-11T19:47:46.350Z,1.17
2019-03-11T19:50:16.398Z,1.20
2019-03-11T19:52:57.954Z,1.50
2019-03-11T19:55:17.002Z,1.73
2019-03-11T19:57:47.494Z,1.70
2019-03-11T20:00:18.343Z,1.00
2019-03-11T20:02:49.076Z,0.80
2019-03-11T20:05:20.357Z,2.37
2019-03-11T20:07:49.905Z,1.40
2019-03-11T20:10:19.363Z,0.90
2019-03-11T20:12:48.791Z,1.20
2019-03-11T20:15:18.612Z,0.90
2019-03-11T20:17:48.225Z,1.03
2019-03-11T20:20:18.066Z,0.83
2019-03-11T20:22:47.580Z,0.90
2019-03-11T20:25:19.383Z,1.40
2019-03-11T20:27:48.913Z,1.40
2019-03-11T20:30:19.406Z,1.20
2019-03-11T20:32:49.658Z,1.13
2019-03-11T20:35:19.885Z,1.20
2019-03-11T20:37:49.250Z,1.63
2019-03-11T20:40:18.685Z,1.03
2019-03-11T20:42:48.241Z,1.50
2019-03-11T20:45:17.917Z,1.20
2019-03-11T20:47:47.511Z,1.20
2019-03-11T20:50:17.101Z,1.30
2019-03-11T20:52:47.721Z,1.00
2019-03-11T20:55:17.287Z,1.03
2019-03-11T20:57:47.151Z,1.50
2019-03-11T21:00:18.131Z,1.37
2019-03-11T21:02:47.458Z,0.80
2019-03-11T21:05:18.008Z,1.50
2019-03-11T21:07:47.288Z,1.20
2019-03-11T21:10:17.387Z,1.00
2019-03-11T21:12:46.897Z,1.10
2019-03-11T21:15:16.455Z,0.83
2019-03-11T21:17:45.738Z,0.90
2019-03-11T21:20:15.412Z,1.07
2019-03-11T21:22:44.832Z,1.20
2019-03-11T21:25:15.572Z,1.40
2019-03-11T21:27:45.236Z,1.00
2019-03-11T21:30:18.021Z,1.50
2019-03-11T21:32:47.587Z,1.50
2019-03-11T21:35:18.870Z,1.30
2019-03-11T21:37:48.346Z,1.30
2019-03-11T21:40:18.231Z,1.30
2019-03-11T21:42:47.637Z,1.40
2019-03-11T21:45:17.046Z,1.20
2019-03-11T21:47:50.640Z,1.20
2019-03-11T21:50:20.139Z,2.10
2019-03-11T21:52:49.485Z,1.10
2019-03-11T21:55:18.835Z,1.60
2019-03-11T21:57:48.343Z,1.60
2019-03-11T22:00:32.949Z,1.50
2019-03-11T22:02:51.344Z,1.57
2019-03-11T22:05:20.805Z,1.43
2019-03-11T22:07:50.054Z,1.40
2019-03-11T22:10:19.208Z,1.03
2019-03-11T22:12:48.424Z,1.33
2019-03-11T22:15:17.752Z,1.27
2019-03-11T22:17:46.925Z,1.10
2019-03-11T22:20:16.220Z,1.20
2019-03-11T22:22:45.677Z,1.50
2019-03-11T22:25:15.246Z,1.03
2019-03-11T22:27:44.522Z,1.87
2019-03-11T22:30:17.985Z,1.43
2019-03-11T22:32:47.216Z,2.20
2019-03-11T22:35:16.698Z,1.00
2019-03-11T22:37:45.913Z,1.83
2019-03-11T22:40:15.197Z,1.00
2019-03-11T22:42:44.641Z,1.43
2019-03-11T22:45:17.639Z,1.40
2019-03-11T22:47:46.944Z,1.97
2019-03-11T22:50:17.904Z,1.20
2019-03-11T22:52:47.169Z,1.23
2019-03-11T22:55:16.615Z,1.67
2019-03-11T22:57:45.907Z,1.20
2019-03-11T23:00:23.071Z,1.27
2019-03-11T23:02:52.412Z,1.43
2019-03-11T23:05:21.811Z,1.13
2019-03-11T23:07:51.152Z,1.10
2019-03-11T23:10:20.397Z,1.90
2019-03-11T23:12:49.540Z,1.53
2019-03-11T23:15:18.804Z,1.30
2019-03-11T23:17:51.304Z,1.13
2019-03-11T23:20:20.464Z,1.10
2019-03-11T23:22:49.688Z,1.07
2019-03-11T23:25:18.836Z,1.30
2019-03-11T23:27:48.138Z,1.93
2019-03-11T23:30:17.393Z,1.13
2019-03-11T23:32:46.575Z,0.90
2019-03-11T23:35:16.813Z,1.40
2019-03-11T23:37:47.800Z,1.23
2019-03-11T23:40:16.964Z,1.33
2019-03-11T23:42:46.189Z,1.10
2019-03-11T23:45:15.432Z,1.23
2019-03-11T23:47:45.674Z,1.83
2019-03-11T23:50:14.797Z,1.10
2019-03-11T23:52:43.996Z,1.20
2019-03-11T23:55:13.529Z,1.30
2019-03-11T23:57:42.686Z,1.47
